Time;durP1;ratioP1;P1;durP2;ratioP2;P2;SDS_P1;SDS_P2;PMS_P1;PMS_P2;Temp;Humidity;BMP_temperature;BMP_pressure;BME280_temperature;BME280_humidity;BME280_pressure;Samples;Min_cycle;Max_cycle;Signal;HPM_P1;HPM_P2
2023/04/11 00:01:00;;;;;;;;;;;;;;;;;;4992139;28;19930;-86
2023/04/11 00:03:28;;;;;;;;;;;;;;;;;;5006719;28;19926;-88
2023/04/11 00:05:55;;;;;;;;;;;;;;;;;;4990194;28;19929;-88
2023/04/11 00:08:23;;;;;;;;;;;;;;;;;;4991416;28;19955;-89
2023/04/11 00:10:50;;;;;;;;;;;;;;;;;;5008180;28;20315;-86
2023/04/11 00:13:19;;;;;;;;;;;;;;;;;;4994035;28;20291;-88
2023/04/11 00:15:46;;;;;;;;;;;;;;;;;;5011297;28;19933;-89
2023/04/11 00:18:14;;;;;;;;;;;;;;;;;;4995738;28;19932;-89
2023/04/11 00:20:46;;;;;;;;;;;;;;;;;;4993173;28;19926;-89
2023/04/11 00:23:14;;;;;;;;;;;;;;;;;;4995295;28;19949;-89
2023/04/11 00:25:41;;;;;;;;;;;;;;;;;;4995558;28;20402;-89
2023/04/11 00:28:09;;;;;;;;;;;;;;;;;;5010803;28;20264;-86
2023/04/11 00:30:36;;;;;;;;;;;;;;;;;;4994071;28;19926;-89
2023/04/11 00:33:09;;;;;;;;;;;;;;;;;;4989759;28;19937;-88
2023/04/11 00:35:41;;;;;;;;;;;;;;;;;;4994709;28;19925;-86
2023/04/11 00:38:09;;;;;;;;;;;;;;;;;;5012191;28;19933;-90
2023/04/11 00:40:36;;;;;;;;;;;;;;;;;;4996079;28;19926;-89
2023/04/11 00:43:04;;;;;;;;;;;;;;;;;;4994409;28;20271;-86
2023/04/11 00:45:31;;;;;;;;;;;;;;;;;;4995111;28;20290;-90
2023/04/11 00:48:04;;;;;;;;;;;;;;;;;;5007318;28;19934;-87
2023/04/11 00:50:32;;;;;;;;;;;;;;;;;;5011683;28;19925;-89
2023/04/11 00:52:59;;;;;;;;;;;;;;;;;;4995350;28;19933;-89
2023/04/11 00:55:27;;;;;;;;;;;;;;;;;;4994655;28;20382;-90
2023/04/11 00:57:55;;;;;;;;;;;;;;;;;;5012073;28;19929;-86
2023/04/11 01:00:22;;;;;;;;;;;;;;;;;;4995161;28;20819;-88
2023/04/11 01:02:50;;;;;;;;;;;;;;;;;;4996404;28;19930;-88
2023/04/11 01:05:18;;;;;;;;;;;;;;;;;;4995009;28;20286;-88
2023/04/11 01:07:46;;;;;;;;;;;;;;;;;;4995179;28;19929;-87
2023/04/11 01:10:14;;;;;;;;;;;;;;;;;;4998116;28;19930;-86
2023/04/11 01:12:41;;;;;;;;;;;;;;;;;;4994884;28;20303;-85
2023/04/11 01:15:08;;;;;;;;;;;;;;;;;;4994181;28;19926;-86
2023/04/11 01:17:36;;;;;;;;;;;;;;;;;;4994198;28;19925;-89
2023/04/11 01:20:10;;;;;;;;;;;;;;;;;;4995459;28;19937;-87
2023/04/11 01:22:37;;;;;;;;;;;;;;;;;;4994059;28;19937;-85
2023/04/11 01:25:05;;;;;;;;;;;;;;;;;;4992327;28;20457;-88
2023/04/11 01:27:33;;;;;;;;;;;;;;;;;;5009940;28;19925;-88
2023/04/11 01:30:01;;;;;;;;;;;;;;;;;;4996044;28;20282;-87
2023/04/11 01:32:28;;;;;;;;;;;;;;;;;;5009976;28;19926;-87
2023/04/11 01:34:56;;;;;;;;;;;;;;;;;;5004366;28;19933;-86
2023/04/11 01:37:23;;;;;;;;;;;;;;;;;;4994588;28;19933;-88
2023/04/11 01:39:56;;;;;;;;;;;;;;;;;;5004661;28;19926;-89
2023/04/11 01:42:23;;;;;;;;;;;;;;;;;;4986827;28;19933;-87
2023/04/11 01:44:56;;;;;;;;;;;;;;;;;;5008637;28;20363;-87
2023/04/11 01:47:23;;;;;;;;;;;;;;;;;;5009745;28;19968;-88
2023/04/11 01:49:52;;;;;;;;;;;;;;;;;;4995548;28;20270;-84
2023/04/11 01:52:20;;;;;;;;;;;;;;;;;;4988179;28;19934;-87
2023/04/11 01:54:47;;;;;;;;;;;;;;;;;;5008880;28;19933;-86
2023/04/11 01:57:15;;;;;;;;;;;;;;;;;;5009304;28;20302;-87
2023/04/11 01:59:42;;;;;;;;;;;;;;;;;;5008918;28;19934;-88
2023/04/11 02:02:10;;;;;;;;;;;;;;;;;;4993815;28;19926;-86
2023/04/11 02:04:42;;;;;;;;;;;;;;;;;;5008738;28;19926;-88
2023/04/11 02:07:10;;;;;;;;;;;;;;;;;;5009541;28;19930;-88
2023/04/11 02:09:43;;;;;;;;;;;;;;;;;;5010831;28;19925;-89
2023/04/11 02:12:11;;;;;;;;;;;;;;;;;;4985745;28;19930;-89
2023/04/11 02:14:38;;;;;;;;;;;;;;;;;;4992908;28;19926;-86
2023/04/11 02:17:08;;;;;;;;;;;;;;;;;;5008557;28;20295;-86
2023/04/11 02:19:36;;;;;;;;;;;;;;;;;;5007427;28;19956;-88
2023/04/11 02:22:06;;;;;;;;;;;;;;;;;;5008216;28;19933;-81
2023/04/11 02:24:34;;;;;;;;;;;;;;;;;;5009125;28;19926;-87
2023/04/11 02:27:01;;;;;;;;;;;;;;;;;;4997378;28;19926;-86
2023/04/11 02:29:29;;;;;;;;;;;;;;;;;;5008474;28;19933;-87
2023/04/11 02:31:56;;;;;;;;;;;;;;;;;;4993505;28;20422;-86
2023/04/11 02:34:24;;;;;;;;;;;;;;;;;;5011561;28;19926;-87
2023/04/11 02:36:57;;;;;;;;;;;;;;;;;;5009475;28;19933;-89
2023/04/11 02:39:25;;;;;;;;;;;;;;;;;;4993538;28;19937;-85
2023/04/11 02:41:54;;;;;;;;;;;;;;;;;;4994915;28;19933;-87
2023/04/11 02:44:22;;;;;;;;;;;;;;;;;;4993514;28;19933;-90
2023/04/11 02:46:50;;;;;;;;;;;;;;;;;;5008443;28;19925;-86
2023/04/11 02:49:17;;;;;;;;;;;;;;;;;;4998684;28;19926;-89
2023/04/11 02:51:46;;;;;;;;;;;;;;;;;;4991872;28;20401;-87
2023/04/11 02:54:14;;;;;;;;;;;;;;;;;;4993791;28;19935;-87
2023/04/11 02:56:47;;;;;;;;;;;;;;;;;;4993084;28;19925;-86
2023/04/11 02:59:14;;;;;;;;;;;;;;;;;;4993053;28;20295;-86
2023/04/11 03:01:47;;;;;;;;;;;;;;;;;;5007987;28;19930;-87
2023/04/11 03:04:19;;;;;;;;;;;;;;;;;;4987891;28;19985;-86
2023/04/11 03:07:03;;;;;;;;;;;;;;;;;;5009079;28;19926;-87
2023/04/11 03:09:36;;;;;;;;;;;;;;;;;;5009995;28;20425;-86
2023/04/11 03:12:09;;;;;;;;;;;;;;;;;;5006071;28;19933;-85
2023/04/11 03:14:51;;;;;;;;;;;;;;;;;;5010059;28;20378;-85
2023/04/11 03:17:20;;;;;;;;;;;;;;;;;;5007478;28;19929;-85
2023/04/11 03:19:52;;;;;;;;;;;;;;;;;;5008133;28;19933;-86
2023/04/11 03:22:25;;;;;;;;;;;;;;;;;;4991411;28;19933;-85
2023/04/11 03:24:58;;;;;;;;;;;;;;;;;;4984167;28;19926;-85
2023/04/11 03:27:26;;;;;;;;;;;;;;;;;;5008912;28;20441;-86
2023/04/11 03:30:02;;;;;;;;;;;;;;;;;;5005352;28;19934;-85
2023/04/11 03:32:46;;;;;;;;;;;;;;;;;;4993821;28;19933;-84
2023/04/11 03:35:19;;;;;;;;;;;;;;;;;;5007662;28;19933;-89
2023/04/11 03:37:48;;;;;;;;;;;;;;;;;;4991840;28;19926;-86
2023/04/11 03:40:17;;;;;;;;;;;;;;;;;;5004538;28;19934;-84
2023/04/11 03:42:48;;;;;;;;;;;;;;;;;;4999792;28;19925;-88
2023/04/11 03:45:20;;;;;;;;;;;;;;;;;;5006549;28;19933;-86
2023/04/11 03:47:48;;;;;;;;;;;;;;;;;;5006595;28;19933;-84
2023/04/11 03:50:19;;;;;;;;;;;;;;;;;;5007900;28;19933;-86
2023/04/11 03:52:49;;;;;;;;;;;;;;;;;;4992984;28;20383;-85
2023/04/11 03:55:22;;;;;;;;;;;;;;;;;;4992306;28;19937;-87
2023/04/11 03:57:49;;;;;;;;;;;;;;;;;;5008859;28;19937;-88
2023/04/11 04:00:22;;;;;;;;;;;;;;;;;;5007415;28;20295;-85
2023/04/11 04:03:01;;;;;;;;;;;;;;;;;;4991548;28;19926;-84
2023/04/11 04:05:28;;;;;;;;;;;;;;;;;;5008111;28;19930;-87
2023/04/11 04:07:56;;;;;;;;;;;;;;;;;;4984358;28;19929;-85
2023/04/11 04:10:36;;;;;;;;;;;;;;;;;;5008657;28;19937;-85
2023/04/11 04:13:03;;;;;;;;;;;;;;;;;;4994110;28;19925;-86
2023/04/11 04:15:35;;;;;;;;;;;;;;;;;;5007158;28;19933;-86
2023/04/11 04:18:03;;;;;;;;;;;;;;;;;;4992119;28;19941;-86
2023/04/11 04:20:47;;;;;;;;;;;;;;;;;;4990487;28;19937;-86
2023/04/11 04:23:16;;;;;;;;;;;;;;;;;;5007524;28;19926;-85
2023/04/11 04:26:12;;;;;;;;;;;;;;;;;;4991932;28;19926;-88
2023/04/11 04:28:44;;;;;;;;;;;;;;;;;;5007002;28;20645;-88
2023/04/11 04:31:21;;;;;;;;;;;;;;;;;;5010302;28;19933;-88
2023/04/11 04:33:49;;;;;;;;;;;;;;;;;;5007295;28;20271;-85
2023/04/11 04:36:23;;;;;;;;;;;;;;;;;;5006012;28;19930;-85
2023/04/11 04:39:00;;;;;;;;;;;;;;;;;;5007753;28;19925;-86
2023/04/11 04:41:35;;;;;;;;;;;;;;;;;;5008384;28;19925;-84
2023/04/11 04:44:04;;;;;;;;;;;;;;;;;;4990639;28;19926;-85
2023/04/11 04:46:40;;;;;;;;;;;;;;;;;;5007742;28;19926;-87
2023/04/11 04:49:07;;;;;;;;;;;;;;;;;;4999408;28;20452;-87
2023/04/11 04:51:36;;;;;;;;;;;;;;;;;;5006080;28;19926;-86
2023/04/11 04:54:04;;;;;;;;;;;;;;;;;;4991206;28;20279;-86
2023/04/11 04:56:32;;;;;;;;;;;;;;;;;;4996475;28;19941;-84
2023/04/11 04:59:04;;;;;;;;;;;;;;;;;;5005078;28;19966;-87
2023/04/11 05:01:33;;;;;;;;;;;;;;;;;;5007306;28;19933;-87
2023/04/11 05:04:04;;;;;;;;;;;;;;;;;;4985216;28;19937;-87
2023/04/11 05:06:43;;;;;;;;;;;;;;;;;;5003524;28;19934;-86
2023/04/11 05:09:11;;;;;;;;;;;;;;;;;;5008242;28;20375;-83
2023/04/11 05:11:39;;;;;;;;;;;;;;;;;;5008881;28;19926;-87
2023/04/11 05:14:08;;;;;;;;;;;;;;;;;;5009221;28;19933;-85
2023/04/11 05:16:36;;;;;;;;;;;;;;;;;;5009871;28;19933;-85
2023/04/11 05:19:04;;;;;;;;;;;;;;;;;;4992990;28;19934;-86
2023/04/11 05:21:41;;;;;;;;;;;;;;;;;;5007988;28;19926;-86
2023/04/11 05:24:08;;;;;;;;;;;;;;;;;;5009223;28;19936;-89
2023/04/11 05:26:36;;;;;;;;;;;;;;;;;;5008383;28;19937;-89
2023/04/11 05:29:05;;;;;;;;;;;;;;;;;;5009240;28;19926;-89
2023/04/11 05:31:32;;;;;;;;;;;;;;;;;;5008514;28;19933;-87
2023/04/11 05:34:00;;;;;;;;;;;;;;;;;;5009387;28;19936;-87
2023/04/11 05:36:28;;;;;;;;;;;;;;;;;;5001806;28;19948;-87
2023/04/11 05:39:01;;;;;;;;;;;;;;;;;;4991906;28;19930;-89
2023/04/11 05:41:28;;;;;;;;;;;;;;;;;;4991100;28;19929;-86
2023/04/11 05:43:56;;;;;;;;;;;;;;;;;;5003910;28;20303;-88
2023/04/11 05:46:28;;;;;;;;;;;;;;;;;;5006009;28;19926;-88
2023/04/11 05:48:58;;;;;;;;;;;;;;;;;;5006474;28;20421;-86
2023/04/11 05:51:25;;;;;;;;;;;;;;;;;;4990680;28;19953;-85
2023/04/11 05:53:53;;;;;;;;;;;;;;;;;;5007337;28;19930;-84
2023/04/11 05:56:20;;;;;;;;;;;;;;;;;;4993226;28;19949;-85
2023/04/11 05:58:53;;;;;;;;;;;;;;;;;;4995351;28;19930;-85
2023/04/11 06:01:21;;;;;;;;;;;;;;;;;;4993458;28;19930;-85
2023/04/11 06:03:53;;;;;;;;;;;;;;;;;;4991949;28;19932;-85
2023/04/11 06:06:21;;;;;;;;;;;;;;;;;;5006641;28;19941;-89
2023/04/11 06:08:53;;;;;;;;;;;;;;;;;;5002058;28;19945;-84
2023/04/11 06:11:26;;;;;;;;;;;;;;;;;;5004958;28;19929;-87
2023/04/11 06:13:54;;;;;;;;;;;;;;;;;;5007162;28;19926;-85
2023/04/11 06:16:21;;;;;;;;;;;;;;;;;;4991957;28;19930;-85
2023/04/11 06:18:54;;;;;;;;;;;;;;;;;;4991012;28;20298;-86
2023/04/11 06:21:22;;;;;;;;;;;;;;;;;;5002799;28;19937;-87
2023/04/11 06:23:49;;;;;;;;;;;;;;;;;;5007196;28;19934;-84
2023/04/11 06:26:17;;;;;;;;;;;;;;;;;;4994051;28;19929;-86
2023/04/11 06:28:45;;;;;;;;;;;;;;;;;;4993284;28;20286;-86
2023/04/11 06:31:12;;;;;;;;;;;;;;;;;;4991507;28;19926;-86
2023/04/11 06:33:40;;;;;;;;;;;;;;;;;;4987839;28;19926;-86
2023/04/11 06:36:07;;;;;;;;;;;;;;;;;;4992905;28;20302;-86
2023/04/11 06:38:35;;;;;;;;;;;;;;;;;;4991965;28;19926;-87
2023/04/11 06:41:03;;;;;;;;;;;;;;;;;;4970519;28;19934;-83
2023/04/11 06:43:35;;;;;;;;;;;;;;;;;;4985191;28;19934;-83
2023/04/11 06:46:08;;;;;;;;;;;;;;;;;;4968832;28;20346;-83
2023/04/11 06:48:35;;;;;;;;;;;;;;;;;;4984752;28;19964;-83
2023/04/11 06:51:09;;;;;;;;;;;;;;;;;;4975581;28;20434;-82
2023/04/11 06:53:36;;;;;;;;;;;;;;;;;;4971532;28;19933;-83
2023/04/11 06:56:09;;;;;;;;;;;;;;;;;;4984462;28;19941;-85
2023/04/11 06:58:41;;;;;;;;;;;;;;;;;;4979449;28;19933;-83
2023/04/11 07:01:09;;;;;;;;;;;;;;;;;;4971944;28;19934;-83
2023/04/11 07:03:42;;;;;;;;;;;;;;;;;;4986679;28;20485;-85
2023/04/11 07:06:10;;;;;;;;;;;;;;;;;;4974997;28;20393;-82
2023/04/11 07:08:38;;;;;;;;;;;;;;;;;;4974573;28;19941;-81
2023/04/11 07:11:05;;;;;;;;;;;;;;;;;;4968049;28;19929;-82
2023/04/11 07:13:33;;;;;;;;;;;;;;;;;;4990597;28;19933;-82
2023/04/11 07:16:00;;;;;;;;;;;;;;;;;;4970216;28;19934;-83
2023/04/11 07:18:28;;;;;;;;;;;;;;;;;;4975486;28;19941;-81
2023/04/11 07:20:55;;;;;;;;;;;;;;;;;;4983200;28;19941;-84
2023/04/11 07:23:23;;;;;;;;;;;;;;;;;;4968968;28;19940;-81
2023/04/11 07:25:53;;;;;;;;;;;;;;;;;;4974783;28;19933;-82
2023/04/11 07:28:21;;;;;;;;;;;;;;;;;;4971854;28;19941;-85
2023/04/11 07:30:53;;;;;;;;;;;;;;;;;;4974939;28;19941;-84
2023/04/11 07:33:21;;;;;;;;;;;;;;;;;;4979237;28;19933;-82
2023/04/11 07:35:48;;;;;;;;;;;;;;;;;;4979502;28;20453;-82
2023/04/11 07:38:28;;;;;;;;;;;;;;;;;;4972844;28;20301;-82
2023/04/11 07:41:00;;;;;;;;;;;;;;;;;;4966017;28;19934;-84
2023/04/11 07:43:28;;;;;;;;;;;;;;;;;;4985086;28;20394;-87
2023/04/11 07:45:55;;;;;;;;;;;;;;;;;;4973882;28;19934;-86
2023/04/11 07:48:23;;;;;;;;;;;;;;;;;;4994125;28;19933;-84
2023/04/11 07:50:55;;;;;;;;;;;;;;;;;;4972808;28;19954;-84
2023/04/11 07:53:23;;;;;;;;;;;;;;;;;;4977984;28;19934;-84
2023/04/11 07:55:50;;;;;;;;;;;;;;;;;;4969343;28;20013;-81
2023/04/11 07:58:23;;;;;;;;;;;;;;;;;;4987922;28;20200;-81
2023/04/11 08:00:52;;;;;;;;;;;;;;;;;;4981438;28;19926;-82
2023/04/11 08:03:25;;;;;;;;;;;;;;;;;;4983503;28;20504;-83
2023/04/11 08:05:53;;;;;;;;;;;;;;;;;;4983017;28;20876;-88
2023/04/11 08:08:25;;;;;;;;;;;;;;;;;;4975551;28;19926;-84
2023/04/11 08:10:58;;;;;;;;;;;;;;;;;;4978055;28;19933;-81
2023/04/11 08:13:25;;;;;;;;;;;;;;;;;;4985949;28;19946;-84
2023/04/11 08:15:58;;;;;;;;;;;;;;;;;;4972357;28;19933;-85
2023/04/11 08:18:31;;;;;;;;;;;;;;;;;;4983440;28;19934;-83
2023/04/11 08:21:04;;;;;;;;;;;;;;;;;;4974622;28;19933;-85
2023/04/11 08:23:31;;;;;;;;;;;;;;;;;;4975574;28;20370;-84
2023/04/11 08:25:59;;;;;;;;;;;;;;;;;;4979969;28;20306;-82
2023/04/11 08:28:32;;;;;;;;;;;;;;;;;;4987541;28;19945;-85
2023/04/11 08:31:01;;;;;;;;;;;;;;;;;;4969391;28;20382;-83
2023/04/11 08:33:28;;;;;;;;;;;;;;;;;;4970797;28;21229;-81
2023/04/11 08:35:56;;;;;;;;;;;;;;;;;;4994173;28;20753;-84
2023/04/11 08:38:24;;;;;;;;;;;;;;;;;;4973997;28;19934;-82
2023/04/11 08:40:51;;;;;;;;;;;;;;;;;;4984884;28;19936;-82
2023/04/11 08:43:24;;;;;;;;;;;;;;;;;;4991952;28;19934;-82
2023/04/11 08:45:51;;;;;;;;;;;;;;;;;;4993490;28;20406;-87
2023/04/11 08:48:20;;;;;;;;;;;;;;;;;;4975078;28;20307;-86
2023/04/11 08:50:48;;;;;;;;;;;;;;;;;;4976974;28;19938;-86
2023/04/11 08:53:16;;;;;;;;;;;;;;;;;;4997417;28;19945;-84
2023/04/11 08:55:44;;;;;;;;;;;;;;;;;;4991440;28;19933;-83
2023/04/11 08:58:12;;;;;;;;;;;;;;;;;;4993997;28;19930;-83
2023/04/11 09:00:39;;;;;;;;;;;;;;;;;;4993813;28;19934;-86
2023/04/11 09:03:12;;;;;;;;;;;;;;;;;;4982530;28;19937;-85
2023/04/11 09:05:40;;;;;;;;;;;;;;;;;;4986898;28;19941;-83
2023/04/11 09:08:07;;;;;;;;;;;;;;;;;;4977441;28;19941;-84
2023/04/11 09:10:35;;;;;;;;;;;;;;;;;;4977588;28;20352;-83
2023/04/11 09:13:07;;;;;;;;;;;;;;;;;;5000582;28;20306;-84
2023/04/11 09:15:35;;;;;;;;;;;;;;;;;;4988804;28;20310;-84
2023/04/11 09:18:07;;;;;;;;;;;;;;;;;;4976876;28;19933;-84
2023/04/11 09:20:35;;;;;;;;;;;;;;;;;;4976033;28;20275;-83
2023/04/11 09:23:02;;;;;;;;;;;;;;;;;;4987335;28;19933;-83
2023/04/11 09:25:30;;;;;;;;;;;;;;;;;;4998767;28;19934;-85
2023/04/11 09:27:57;;;;;;;;;;;;;;;;;;4995642;28;20081;-84
2023/04/11 09:30:25;;;;;;;;;;;;;;;;;;4998817;28;20425;-84
2023/04/11 09:32:52;;;;;;;;;;;;;;;;;;4996286;28;19934;-83
2023/04/11 09:35:21;;;;;;;;;;;;;;;;;;4991330;28;19934;-83
2023/04/11 09:37:49;;;;;;;;;;;;;;;;;;4998558;28;20170;-86
2023/04/11 09:40:16;;;;;;;;;;;;;;;;;;4964993;28;19942;-84
2023/04/11 09:42:44;;;;;;;;;;;;;;;;;;4995579;28;19948;-85
2023/04/11 09:45:11;;;;;;;;;;;;;;;;;;4995329;28;19952;-84
2023/04/11 09:47:39;;;;;;;;;;;;;;;;;;4996597;28;20535;-82
2023/04/11 09:50:07;;;;;;;;;;;;;;;;;;4996669;28;19996;-84
2023/04/11 09:52:34;;;;;;;;;;;;;;;;;;4986856;28;19930;-83
2023/04/11 09:55:03;;;;;;;;;;;;;;;;;;4984810;28;20394;-83
2023/04/11 09:57:31;;;;;;;;;;;;;;;;;;4982388;28;20267;-84
2023/04/11 09:59:58;;;;;;;;;;;;;;;;;;4992340;28;19932;-87
2023/04/11 10:02:32;;;;;;;;;;;;;;;;;;4982023;28;19933;-83
2023/04/11 10:05:03;;;;;;;;;;;;;;;;;;4998027;28;19934;-83
2023/04/11 10:07:30;;;;;;;;;;;;;;;;;;4984439;28;19934;-88
2023/04/11 10:09:58;;;;;;;;;;;;;;;;;;4975090;28;19933;-85
2023/04/11 10:12:25;;;;;;;;;;;;;;;;;;4995814;28;19933;-84
2023/04/11 10:14:53;;;;;;;;;;;;;;;;;;4994391;28;21119;-86
2023/04/11 10:17:20;;;;;;;;;;;;;;;;;;4990196;28;19934;-83
2023/04/11 10:19:50;;;;;;;;;;;;;;;;;;4983010;28;20537;-85
2023/04/11 10:22:17;;;;;;;;;;;;;;;;;;4996552;28;20381;-82
2023/04/11 10:24:45;;;;;;;;;;;;;;;;;;4989907;28;20248;-81
2023/04/11 10:27:12;;;;;;;;;;;;;;;;;;4977307;28;20035;-83
2023/04/11 10:29:45;;;;;;;;;;;;;;;;;;4981239;28;20437;-83
2023/04/11 10:32:12;;;;;;;;;;;;;;;;;;4993117;28;19940;-82
2023/04/11 10:34:40;;;;;;;;;;;;;;;;;;4996938;28;19933;-83
2023/04/11 10:37:13;;;;;;;;;;;;;;;;;;4975203;28;19926;-84
2023/04/11 10:39:40;;;;;;;;;;;;;;;;;;4971899;28;19929;-83
2023/04/11 10:42:13;;;;;;;;;;;;;;;;;;4977795;28;19934;-81
2023/04/11 10:44:40;;;;;;;;;;;;;;;;;;4996108;28;19938;-82
2023/04/11 10:47:08;;;;;;;;;;;;;;;;;;5001085;28;20288;-82
2023/04/11 10:49:36;;;;;;;;;;;;;;;;;;4998675;28;21276;-84
2023/04/11 10:52:03;;;;;;;;;;;;;;;;;;4996106;28;19940;-83
2023/04/11 10:54:36;;;;;;;;;;;;;;;;;;4983061;28;19933;-83
2023/04/11 10:57:03;;;;;;;;;;;;;;;;;;4994795;28;19929;-86
2023/04/11 10:59:31;;;;;;;;;;;;;;;;;;4976425;28;20306;-84
2023/04/11 11:02:00;;;;;;;;;;;;;;;;;;4976936;28;20329;-83
2023/04/11 11:04:27;;;;;;;;;;;;;;;;;;4983840;28;19940;-84
2023/04/11 11:06:55;;;;;;;;;;;;;;;;;;4978121;28;19934;-83
2023/04/11 11:09:22;;;;;;;;;;;;;;;;;;4991083;28;19933;-81
2023/04/11 11:11:55;;;;;;;;;;;;;;;;;;4973676;28;19933;-84
2023/04/11 11:14:23;;;;;;;;;;;;;;;;;;4973213;28;19960;-84
2023/04/11 11:16:50;;;;;;;;;;;;;;;;;;4971706;28;19933;-83
2023/04/11 11:19:18;;;;;;;;;;;;;;;;;;4995537;28;19934;-83
2023/04/11 11:21:45;;;;;;;;;;;;;;;;;;4996174;28;20572;-83
2023/04/11 11:24:18;;;;;;;;;;;;;;;;;;4981355;28;19933;-85
2023/04/11 11:26:46;;;;;;;;;;;;;;;;;;4975132;28;19934;-84
2023/04/11 11:29:14;;;;;;;;;;;;;;;;;;4994186;28;19934;-84
2023/04/11 11:31:44;;;;;;;;;;;;;;;;;;4976866;28;19940;-85
2023/04/11 11:34:11;;;;;;;;;;;;;;;;;;4974714;28;19933;-85
2023/04/11 11:36:39;;;;;;;;;;;;;;;;;;4991358;28;19933;-82
2023/04/11 11:39:07;;;;;;;;;;;;;;;;;;4985116;28;19930;-84
2023/04/11 11:41:34;;;;;;;;;;;;;;;;;;4968398;28;19941;-84
2023/04/11 11:44:02;;;;;;;;;;;;;;;;;;4995890;28;19933;-82
2023/04/11 11:46:35;;;;;;;;;;;;;;;;;;4989425;28;20815;-85
2023/04/11 11:49:03;;;;;;;;;;;;;;;;;;4978158;28;19952;-83
2023/04/11 11:51:30;;;;;;;;;;;;;;;;;;4998786;28;19933;-85
2023/04/11 11:53:58;;;;;;;;;;;;;;;;;;4993101;28;19941;-83
2023/04/11 11:56:25;;;;;;;;;;;;;;;;;;4994460;28;19937;-84
2023/04/11 11:58:53;;;;;;;;;;;;;;;;;;4974313;28;19933;-86
2023/04/11 12:01:21;;;;;;;;;;;;;;;;;;4979686;28;19933;-82
2023/04/11 12:03:50;;;;;;;;;;;;;;;;;;4976830;28;20492;-85
2023/04/11 12:06:17;;;;;;;;;;;;;;;;;;4979633;28;19936;-82
2023/04/11 12:08:49;;;;;;;;;;;;;;;;;;4982302;28;19965;-82
2023/04/11 12:11:17;;;;;;;;;;;;;;;;;;4981155;28;19934;-82
2023/04/11 12:13:45;;;;;;;;;;;;;;;;;;4980695;28;19940;-82
2023/04/11 12:16:14;;;;;;;;;;;;;;;;;;4995448;28;19925;-82
2023/04/11 12:18:42;;;;;;;;;;;;;;;;;;4978761;28;19945;-82
2023/04/11 12:21:16;;;;;;;;;;;;;;;;;;4981902;28;19932;-81
2023/04/11 12:23:44;;;;;;;;;;;;;;;;;;4981833;28;20662;-81
2023/04/11 12:26:12;;;;;;;;;;;;;;;;;;4990188;28;19937;-82
2023/04/11 12:28:39;;;;;;;;;;;;;;;;;;4984548;28;19930;-82
2023/04/11 12:31:07;;;;;;;;;;;;;;;;;;4998884;28;19956;-81
2023/04/11 12:33:34;;;;;;;;;;;;;;;;;;4972302;28;19930;-81
2023/04/11 12:36:02;;;;;;;;;;;;;;;;;;4992061;28;19934;-81
2023/04/11 12:38:30;;;;;;;;;;;;;;;;;;4986099;28;19944;-81
2023/04/11 12:40:57;;;;;;;;;;;;;;;;;;4952956;28;19933;-82
2023/04/11 12:43:30;;;;;;;;;;;;;;;;;;4978282;28;19934;-83
2023/04/11 12:46:02;;;;;;;;;;;;;;;;;;4980412;28;19938;-82
2023/04/11 12:48:35;;;;;;;;;;;;;;;;;;4981099;28;19941;-82
2023/04/11 12:51:02;;;;;;;;;;;;;;;;;;4977599;28;19934;-82
2023/04/11 12:53:35;;;;;;;;;;;;;;;;;;5000014;28;19933;-82
2023/04/11 12:56:02;;;;;;;;;;;;;;;;;;4982247;28;19934;-81
2023/04/11 12:58:31;;;;;;;;;;;;;;;;;;4978927;28;19933;-83
2023/04/11 13:01:05;;;;;;;;;;;;;;;;;;4981229;28;19940;-82
2023/04/11 13:03:32;;;;;;;;;;;;;;;;;;4988609;28;19941;-82
2023/04/11 13:06:00;;;;;;;;;;;;;;;;;;4978823;28;19934;-83
2023/04/11 13:08:27;;;;;;;;;;;;;;;;;;4994993;28;19934;-80
2023/04/11 13:10:55;;;;;;;;;;;;;;;;;;4973954;28;20375;-83
2023/04/11 13:13:27;;;;;;;;;;;;;;;;;;4972847;28;19934;-81
2023/04/11 13:15:55;;;;;;;;;;;;;;;;;;4987998;28;19933;-82
2023/04/11 13:18:22;;;;;;;;;;;;;;;;;;4975326;28;20387;-82
2023/04/11 13:20:50;;;;;;;;;;;;;;;;;;4971532;28;19933;-82
2023/04/11 13:23:23;;;;;;;;;;;;;;;;;;4973148;28;21635;-82
2023/04/11 13:25:50;;;;;;;;;;;;;;;;;;4977258;28;19932;-84
2023/04/11 13:28:22;;;;;;;;;;;;;;;;;;4983150;28;20974;-80
2023/04/11 13:30:50;;;;;;;;;;;;;;;;;;4973368;28;19964;-82
2023/04/11 13:33:18;;;;;;;;;;;;;;;;;;4973176;28;19933;-85
2023/04/11 13:35:45;;;;;;;;;;;;;;;;;;4976610;28;20013;-82
2023/04/11 13:38:18;;;;;;;;;;;;;;;;;;4974224;28;19940;-85
2023/04/11 13:40:50;;;;;;;;;;;;;;;;;;4964260;28;20422;-83
2023/04/11 13:43:23;;;;;;;;;;;;;;;;;;4983883;28;20694;-81
2023/04/11 13:45:50;;;;;;;;;;;;;;;;;;4972883;28;19937;-82
2023/04/11 13:48:18;;;;;;;;;;;;;;;;;;4972198;28;19933;-80
2023/04/11 13:50:45;;;;;;;;;;;;;;;;;;4978308;28;19934;-83
2023/04/11 13:53:13;;;;;;;;;;;;;;;;;;4981242;28;19940;-81
2023/04/11 13:55:47;;;;;;;;;;;;;;;;;;4970770;28;19933;-83
2023/04/11 13:58:14;;;;;;;;;;;;;;;;;;4987703;28;19949;-81
2023/04/11 14:00:43;;;;;;;;;;;;;;;;;;4975895;28;19934;-85
2023/04/11 14:03:11;;;;;;;;;;;;;;;;;;4969423;28;20720;-83
2023/04/11 14:05:43;;;;;;;;;;;;;;;;;;4994270;28;19934;-83
2023/04/11 14:08:11;;;;;;;;;;;;;;;;;;4973453;28;19945;-83
2023/04/11 14:10:38;;;;;;;;;;;;;;;;;;4981698;28;19930;-85
2023/04/11 14:13:11;;;;;;;;;;;;;;;;;;4974224;28;19933;-84
2023/04/11 14:15:38;;;;;;;;;;;;;;;;;;4983027;28;19934;-85
2023/04/11 14:18:11;;;;;;;;;;;;;;;;;;4965805;28;20356;-85
2023/04/11 14:20:38;;;;;;;;;;;;;;;;;;4968332;28;19948;-82
2023/04/11 14:23:12;;;;;;;;;;;;;;;;;;4986427;28;19933;-81
2023/04/11 14:25:40;;;;;;;;;;;;;;;;;;4971710;28;19929;-83
2023/04/11 14:28:13;;;;;;;;;;;;;;;;;;4991705;28;19933;-82
2023/04/11 14:30:41;;;;;;;;;;;;;;;;;;4971247;28;19957;-83
2023/04/11 14:33:08;;;;;;;;;;;;;;;;;;4975803;28;19926;-81
2023/04/11 14:35:35;;;;;;;;;;;;;;;;;;4978753;28;19933;-82
2023/04/11 14:38:03;;;;;;;;;;;;;;;;;;4988603;28;19944;-82
2023/04/11 14:40:30;;;;;;;;;;;;;;;;;;4950258;28;20489;-81
2023/04/11 14:43:05;;;;;;;;;;;;;;;;;;4984905;28;20744;-84
2023/04/11 14:45:32;;;;;;;;;;;;;;;;;;4990340;28;19933;-82
2023/04/11 14:48:00;;;;;;;;;;;;;;;;;;4991925;28;19933;-82
2023/04/11 14:50:28;;;;;;;;;;;;;;;;;;4979423;28;20583;-83
2023/04/11 14:52:56;;;;;;;;;;;;;;;;;;4988932;28;20189;-82
2023/04/11 14:55:23;;;;;;;;;;;;;;;;;;4977454;28;19933;-82
2023/04/11 14:57:51;;;;;;;;;;;;;;;;;;4991176;28;19934;-82
2023/04/11 15:00:24;;;;;;;;;;;;;;;;;;4995759;28;20024;-82
2023/04/11 15:02:51;;;;;;;;;;;;;;;;;;4990639;28;19934;-82
2023/04/11 15:05:19;;;;;;;;;;;;;;;;;;4990095;28;19945;-83
2023/04/11 15:07:46;;;;;;;;;;;;;;;;;;4981721;28;20013;-82
2023/04/11 15:10:14;;;;;;;;;;;;;;;;;;4993853;28;19973;-82
2023/04/11 15:12:46;;;;;;;;;;;;;;;;;;4994866;28;20342;-82
2023/04/11 15:15:14;;;;;;;;;;;;;;;;;;4985763;28;19944;-82
2023/04/11 15:17:42;;;;;;;;;;;;;;;;;;4973748;28;19933;-81
2023/04/11 15:20:10;;;;;;;;;;;;;;;;;;4989988;28;19934;-81
2023/04/11 15:22:37;;;;;;;;;;;;;;;;;;4997776;28;19941;-83
2023/04/11 15:25:05;;;;;;;;;;;;;;;;;;4977055;28;19941;-82
2023/04/11 15:27:37;;;;;;;;;;;;;;;;;;4999085;28;19934;-82
2023/04/11 15:30:05;;;;;;;;;;;;;;;;;;4994777;28;19956;-83
2023/04/11 15:32:33;;;;;;;;;;;;;;;;;;4997146;28;19949;-83
2023/04/11 15:35:05;;;;;;;;;;;;;;;;;;4984314;28;20314;-82
2023/04/11 15:37:32;;;;;;;;;;;;;;;;;;4986713;28;20811;-82
2023/04/11 15:40:04;;;;;;;;;;;;;;;;;;4957978;28;19944;-82
2023/04/11 15:42:37;;;;;;;;;;;;;;;;;;4992385;28;19937;-83
2023/04/11 15:45:04;;;;;;;;;;;;;;;;;;4975186;28;19933;-82
2023/04/11 15:47:32;;;;;;;;;;;;;;;;;;4977785;28;19940;-82
2023/04/11 15:50:06;;;;;;;;;;;;;;;;;;4980719;28;19941;-83
2023/04/11 15:52:33;;;;;;;;;;;;;;;;;;4981397;28;19940;-82
2023/04/11 15:55:01;;;;;;;;;;;;;;;;;;4982841;28;19940;-81
2023/04/11 15:57:33;;;;;;;;;;;;;;;;;;4976436;28;20306;-80
2023/04/11 16:00:01;;;;;;;;;;;;;;;;;;4994587;28;19934;-82
2023/04/11 16:02:36;;;;;;;;;;;;;;;;;;4978621;28;19940;-82
2023/04/11 16:05:03;;;;;;;;;;;;;;;;;;4976568;28;19945;-82
2023/04/11 16:07:31;;;;;;;;;;;;;;;;;;4977015;28;19944;-82
2023/04/11 16:09:59;;;;;;;;;;;;;;;;;;4989450;28;19945;-83
2023/04/11 16:12:31;;;;;;;;;;;;;;;;;;4978317;28;20483;-82
2023/04/11 16:14:58;;;;;;;;;;;;;;;;;;4977607;28;20567;-82
2023/04/11 16:17:26;;;;;;;;;;;;;;;;;;4977155;28;19944;-83
2023/04/11 16:19:54;;;;;;;;;;;;;;;;;;4973505;28;19933;-82
2023/04/11 16:22:21;;;;;;;;;;;;;;;;;;4987460;28;19933;-82
2023/04/11 16:24:49;;;;;;;;;;;;;;;;;;4981926;28;19943;-81
2023/04/11 16:27:21;;;;;;;;;;;;;;;;;;4980041;28;19949;-82
2023/04/11 16:29:49;;;;;;;;;;;;;;;;;;4980790;28;19934;-81
2023/04/11 16:32:22;;;;;;;;;;;;;;;;;;4986883;28;19941;-82
2023/04/11 16:34:50;;;;;;;;;;;;;;;;;;4970931;28;19936;-82
2023/04/11 16:37:17;;;;;;;;;;;;;;;;;;4986956;28;19976;-82
2023/04/11 16:39:45;;;;;;;;;;;;;;;;;;4965729;28;19933;-81
2023/04/11 16:42:17;;;;;;;;;;;;;;;;;;4973095;28;20319;-83
2023/04/11 16:44:45;;;;;;;;;;;;;;;;;;4993844;28;20396;-82
2023/04/11 16:47:13;;;;;;;;;;;;;;;;;;4987789;28;19933;-83
2023/04/11 16:49:40;;;;;;;;;;;;;;;;;;4989662;28;19940;-82
2023/04/11 16:52:08;;;;;;;;;;;;;;;;;;4982645;28;19941;-82
2023/04/11 16:54:35;;;;;;;;;;;;;;;;;;4991305;28;19953;-82
2023/04/11 16:57:08;;;;;;;;;;;;;;;;;;4991882;28;19934;-81
2023/04/11 16:59:38;;;;;;;;;;;;;;;;;;4979781;28;19964;-82